Time;durP1;ratioP1;P1;durP2;ratioP2;P2;SDS_P1;SDS_P2;PMS_P1;PMS_P2;Temp;Humidity;BMP_temperature;BMP_pressure;BME280_temperature;BME280_humidity;BME280_pressure;Samples;Min_cycle;Max_cycle;Signal;HPM_P1;HPM_P2
2024/01/15 00:00:21;;;;;;;13.68;7.38;;;;;;;;;;10253472;28;20088;-62
2024/01/15 00:05:19;;;;;;;7.22;5.97;;;;;;;;;;10248486;28;20073;-62
2024/01/15 00:10:18;;;;;;;7.28;6.18;;;;;;;;;;10248634;28;20529;-62
2024/01/15 00:15:17;;;;;;;8.40;6.18;;;;;;;;;;10251026;28;20037;-62
2024/01/15 00:20:15;;;;;;;8.35;6.43;;;;;;;;;;10252844;28;20061;-63
2024/01/15 00:25:13;;;;;;;8.40;6.32;;;;;;;;;;10251288;28;20494;-63
2024/01/15 00:30:14;;;;;;;9.05;7.35;;;;;;;;;;10252458;28;20071;-62
2024/01/15 00:35:12;;;;;;;14.50;8.93;;;;;;;;;;10254799;28;20498;-61
2024/01/15 00:40:11;;;;;;;10.02;7.35;;;;;;;;;;10250559;28;20152;-61
2024/01/15 00:45:10;;;;;;;8.70;6.80;;;;;;;;;;10250133;28;20084;-62
2024/01/15 00:50:10;;;;;;;12.25;9.65;;;;;;;;;;10251153;28;20080;-61
2024/01/15 00:55:09;;;;;;;10.73;8.05;;;;;;;;;;10249447;28;20072;-61
2024/01/15 01:00:08;;;;;;;7.85;7.00;;;;;;;;;;10248359;28;20298;-61
2024/01/15 01:05:07;;;;;;;8.50;7.45;;;;;;;;;;10232796;28;20077;-61
2024/01/15 01:10:07;;;;;;;8.18;6.63;;;;;;;;;;10249046;28;20074;-62
2024/01/15 01:15:06;;;;;;;6.43;5.82;;;;;;;;;;10250661;28;20073;-62
2024/01/15 01:20:06;;;;;;;8.25;5.63;;;;;;;;;;10250047;28;20041;-62
2024/01/15 01:25:05;;;;;;;8.80;6.03;;;;;;;;;;10250289;28;20068;-62
2024/01/15 01:30:06;;;;;;;9.90;7.38;;;;;;;;;;10229705;28;20083;-62
2024/01/15 01:35:05;;;;;;;8.75;7.22;;;;;;;;;;10249108;28;20088;-62
2024/01/15 01:40:03;;;;;;;6.95;6.25;;;;;;;;;;10246685;28;20081;-62
2024/01/15 01:45:02;;;;;;;8.23;6.55;;;;;;;;;;10248366;28;20088;-62
2024/01/15 01:50:02;;;;;;;6.05;5.13;;;;;;;;;;10251566;28;20073;-62
2024/01/15 01:55:01;;;;;;;7.35;6.65;;;;;;;;;;10249214;28;20141;-62
2024/01/15 01:59:59;;;;;;;8.70;7.20;;;;;;;;;;10249367;28;20084;-62
2024/01/15 02:05:10;;;;;;;8.50;6.38;;;;;;;;;;10255756;28;20088;-62
2024/01/15 02:10:09;;;;;;;7.38;5.53;;;;;;;;;;10247924;28;20079;-62
2024/01/15 02:15:07;;;;;;;6.40;5.65;;;;;;;;;;10247323;28;20076;-62
2024/01/15 02:20:06;;;;;;;7.35;6.07;;;;;;;;;;10243044;28;20088;-62
2024/01/15 02:25:06;;;;;;;5.15;4.65;;;;;;;;;;10245769;28;20116;-63
2024/01/15 02:30:06;;;;;;;5.65;5.03;;;;;;;;;;10248802;28;20077;-62
2024/01/15 02:35:05;;;;;;;5.43;4.93;;;;;;;;;;10246204;28;20526;-62
2024/01/15 02:40:03;;;;;;;6.30;5.68;;;;;;;;;;10246193;28;20077;-62
2024/01/15 02:45:03;;;;;;;5.97;5.45;;;;;;;;;;10246249;28;20072;-62
2024/01/15 02:50:01;;;;;;;6.95;5.30;;;;;;;;;;10244053;28;20103;-62
2024/01/15 02:55:01;;;;;;;5.90;5.32;;;;;;;;;;10246498;28;20080;-62
2024/01/15 02:59:59;;;;;;;7.22;5.63;;;;;;;;;;10244913;28;20077;-62
2024/01/15 03:04:58;;;;;;;5.43;4.93;;;;;;;;;;10244307;28;20076;-62
2024/01/15 03:09:57;;;;;;;6.65;5.22;;;;;;;;;;10244873;28;20073;-62
2024/01/15 03:14:55;;;;;;;7.38;4.57;;;;;;;;;;10243473;28;20127;-62
2024/01/15 03:19:53;;;;;;;5.07;4.57;;;;;;;;;;10245657;28;20061;-62
2024/01/15 03:24:53;;;;;;;9.15;6.22;;;;;;;;;;10247606;28;20064;-62
2024/01/15 03:29:52;;;;;;;89.55;53.92;;;;;;;;;;10245685;28;20076;-62
2024/01/15 03:34:52;;;;;;;98.80;56.67;;;;;;;;;;10245630;28;20085;-62
2024/01/15 03:39:50;;;;;;;91.05;55.65;;;;;;;;;;10246644;28;20076;-62
2024/01/15 03:44:50;;;;;;;79.38;46.55;;;;;;;;;;10246343;28;20084;-62
2024/01/15 03:49:48;;;;;;;44.30;28.95;;;;;;;;;;10245830;28;20065;-62
2024/01/15 03:54:47;;;;;;;26.73;18.65;;;;;;;;;;10244943;28;20065;-62
2024/01/15 03:59:47;;;;;;;17.13;14.52;;;;;;;;;;10239086;28;20106;-62
2024/01/15 04:04:46;;;;;;;10.07;9.15;;;;;;;;;;10245834;28;20077;-62
2024/01/15 04:09:45;;;;;;;15.40;13.32;;;;;;;;;;10243128;28;20519;-62
2024/01/15 04:14:43;;;;;;;23.65;17.98;;;;;;;;;;10242862;28;20459;-63
2024/01/15 04:19:43;;;;;;;22.88;16.17;;;;;;;;;;10240349;28;20427;-62
2024/01/15 04:24:43;;;;;;;26.85;19.25;;;;;;;;;;10243154;28;20077;-61
2024/01/15 04:29:42;;;;;;;25.70;18.33;;;;;;;;;;10250968;28;20458;-62
2024/01/15 04:34:40;;;;;;;7.53;5.97;;;;;;;;;;10248921;28;20080;-63
2024/01/15 04:39:38;;;;;;;57.15;31.20;;;;;;;;;;10250334;28;20474;-62
2024/01/15 04:44:38;;;;;;;61.75;35.38;;;;;;;;;;10251561;28;20081;-62
2024/01/15 04:49:36;;;;;;;31.20;17.27;;;;;;;;;;10247997;28;20076;-63
2024/01/15 04:54:34;;;;;;;65.20;41.20;;;;;;;;;;10249397;28;20081;-63
2024/01/15 04:59:33;;;;;;;49.38;33.10;;;;;;;;;;10250105;28;20068;-63
2024/01/15 05:04:32;;;;;;;60.92;36.47;;;;;;;;;;10246467;28;20479;-62
2024/01/15 05:09:31;;;;;;;29.73;20.95;;;;;;;;;;10247484;28;20064;-62
2024/01/15 05:14:30;;;;;;;26.77;18.88;;;;;;;;;;10237385;28;20492;-62
2024/01/15 05:19:28;;;;;;;22.08;16.77;;;;;;;;;;10244406;28;20087;-62
2024/01/15 05:24:28;;;;;;;24.35;18.08;;;;;;;;;;10244348;28;20065;-62
2024/01/15 05:29:29;;;;;;;15.02;11.65;;;;;;;;;;10241802;28;20503;-62
2024/01/15 05:34:27;;;;;;;12.05;8.55;;;;;;;;;;10241674;28;20068;-61
2024/01/15 05:39:25;;;;;;;11.75;10.55;;;;;;;;;;10240952;28;20065;-60
2024/01/15 05:44:25;;;;;;;16.65;14.68;;;;;;;;;;10245252;28;20084;-60
2024/01/15 05:49:23;;;;;;;8.90;8.00;;;;;;;;;;10244920;28;20106;-61
2024/01/15 05:54:22;;;;;;;12.98;9.13;;;;;;;;;;10245206;28;20068;-62
2024/01/15 05:59:20;;;;;;;12.00;10.68;;;;;;;;;;10244310;28;20095;-61
2024/01/15 06:04:19;;;;;;;17.70;13.15;;;;;;;;;;10265569;28;20076;-61
2024/01/15 06:09:18;;;;;;;11.15;8.13;;;;;;;;;;10250756;28;20076;-61
2024/01/15 06:14:16;;;;;;;12.95;9.27;;;;;;;;;;10243738;28;20079;-62
2024/01/15 06:19:14;;;;;;;6.45;5.85;;;;;;;;;;10243732;28;20062;-63
2024/01/15 06:24:15;;;;;;;6.10;5.50;;;;;;;;;;10231120;28;20045;-63
2024/01/15 06:29:13;;;;;;;6.28;4.95;;;;;;;;;;10243453;28;20076;-63
2024/01/15 06:34:11;;;;;;;11.20;6.45;;;;;;;;;;10244074;28;20475;-62
2024/01/15 06:39:11;;;;;;;7.07;4.60;;;;;;;;;;10241703;28;20207;-61
2024/01/15 06:44:11;;;;;;;5.72;4.95;;;;;;;;;;10244359;28;20080;-63
2024/01/15 06:49:09;;;;;;;5.80;4.65;;;;;;;;;;10245314;28;20073;-63
2024/01/15 06:54:08;;;;;;;6.07;4.43;;;;;;;;;;10247158;28;20069;-60
2024/01/15 06:59:06;;;;;;;5.78;4.85;;;;;;;;;;10237854;28;20431;-62
2024/01/15 07:04:06;;;;;;;5.72;5.22;;;;;;;;;;10240251;28;20522;-63
2024/01/15 07:09:05;;;;;;;8.02;5.80;;;;;;;;;;10244817;28;20084;-62
2024/01/15 07:14:03;;;;;;;6.60;5.32;;;;;;;;;;10244381;28;20081;-62
2024/01/15 07:19:01;;;;;;;16.13;13.98;;;;;;;;;;10243005;28;20068;-62
2024/01/15 07:24:01;;;;;;;7.13;6.43;;;;;;;;;;10240026;28;20072;-62
2024/01/15 07:28:59;;;;;;;6.53;5.45;;;;;;;;;;10237003;28;20502;-62
2024/01/15 07:33:57;;;;;;;6.55;5.95;;;;;;;;;;10236913;28;20103;-62
2024/01/15 07:38:56;;;;;;;6.38;5.65;;;;;;;;;;10245356;28;20069;-62
2024/01/15 07:43:55;;;;;;;7.88;6.82;;;;;;;;;;10240005;28;20080;-63
2024/01/15 07:48:56;;;;;;;4.93;4.45;;;;;;;;;;10244262;28;20088;-63
2024/01/15 07:53:55;;;;;;;4.65;4.25;;;;;;;;;;10245703;28;20499;-63
2024/01/15 07:58:53;;;;;;;9.13;5.40;;;;;;;;;;10244118;28;20500;-63
2024/01/15 08:03:54;;;;;;;8.93;8.07;;;;;;;;;;10253302;28;20829;-63
2024/01/15 08:08:52;;;;;;;11.57;8.85;;;;;;;;;;10252438;28;20069;-63
2024/01/15 08:13:51;;;;;;;11.20;7.65;;;;;;;;;;10254878;28;20092;-63
2024/01/15 08:18:49;;;;;;;6.95;5.40;;;;;;;;;;10252037;28;20389;-63
2024/01/15 08:23:49;;;;;;;5.57;4.82;;;;;;;;;;10255191;28;20069;-63
2024/01/15 08:28:47;;;;;;;6.93;4.97;;;;;;;;;;10250084;28;20467;-63
2024/01/15 08:33:45;;;;;;;6.82;5.68;;;;;;;;;;10250985;28;20080;-63
2024/01/15 08:38:44;;;;;;;5.70;4.63;;;;;;;;;;10247654;28;20073;-63
2024/01/15 08:43:44;;;;;;;5.68;5.18;;;;;;;;;;10249647;28;20311;-63
2024/01/15 08:48:42;;;;;;;17.88;13.60;;;;;;;;;;10251834;28;20549;-63
2024/01/15 08:53:40;;;;;;;5.53;4.20;;;;;;;;;;10249727;28;20077;-63
2024/01/15 08:58:39;;;;;;;7.22;5.68;;;;;;;;;;10248999;28;20080;-63
2024/01/15 09:03:38;;;;;;;22.98;15.98;;;;;;;;;;10249788;28;20077;-63
2024/01/15 09:08:37;;;;;;;41.53;26.98;;;;;;;;;;10253688;28;20077;-63
2024/01/15 09:13:35;;;;;;;20.10;13.70;;;;;;;;;;10250624;28;20533;-63
2024/01/15 09:18:33;;;;;;;11.60;6.72;;;;;;;;;;10251211;28;20522;-62
2024/01/15 09:23:33;;;;;;;33.95;20.25;;;;;;;;;;10247491;28;20040;-62
2024/01/15 09:28:31;;;;;;;25.52;13.73;;;;;;;;;;10248270;28;20216;-63
2024/01/15 09:33:29;;;;;;;12.43;9.00;;;;;;;;;;10246148;28;20081;-62
2024/01/15 09:38:28;;;;;;;52.53;31.92;;;;;;;;;;10248660;28;20069;-63
2024/01/15 09:43:27;;;;;;;78.82;46.50;;;;;;;;;;10249303;28;20090;-62
2024/01/15 09:48:26;;;;;;;19.35;15.10;;;;;;;;;;10250816;28;20091;-62
2024/01/15 09:53:24;;;;;;;51.10;31.25;;;;;;;;;;10248981;28;20077;-63
2024/01/15 09:58:26;;;;;;;102.60;66.57;;;;;;;;;;10248222;28;20071;-63
2024/01/15 10:03:25;;;;;;;29.23;24.20;;;;;;;;;;10246028;28;20076;-63
2024/01/15 10:08:24;;;;;;;23.55;20.83;;;;;;;;;;10248004;28;20058;-63
2024/01/15 10:13:23;;;;;;;25.23;22.25;;;;;;;;;;10249337;28;20089;-63
2024/01/15 10:18:21;;;;;;;13.07;11.73;;;;;;;;;;10250361;28;20072;-63
2024/01/15 10:23:21;;;;;;;155.80;103.22;;;;;;;;;;10247524;28;20072;-63
2024/01/15 10:28:20;;;;;;;133.93;81.10;;;;;;;;;;10232020;28;20095;-63
2024/01/15 10:33:25;;;;;;;173.00;103.18;;;;;;;;;;10243924;28;20072;-63
2024/01/15 10:38:25;;;;;;;110.45;63.28;;;;;;;;;;10246662;28;20065;-62
2024/01/15 10:43:24;;;;;;;263.00;166.52;;;;;;;;;;10244224;28;20511;-63
2024/01/15 10:48:28;;;;;;;312.42;137.85;;;;;;;;;;10247414;28;20088;-62
2024/01/15 10:53:28;;;;;;;366.67;157.90;;;;;;;;;;10244713;28;20136;-63
2024/01/15 10:58:29;;;;;;;90.60;42.60;;;;;;;;;;10246865;28;20084;-63
2024/01/15 11:03:28;;;;;;;245.88;112.07;;;;;;;;;;10244944;28;20079;-62
2024/01/15 11:08:28;;;;;;;106.85;55.45;;;;;;;;;;10245866;28;20085;-63
2024/01/15 11:13:40;;;;;;;92.05;49.38;;;;;;;;;;10246997;28;20072;-62
2024/01/15 11:18:40;;;;;;;30.65;17.83;;;;;;;;;;10246112;28;20077;-62
2024/01/15 11:23:47;;;;;;;218.02;109.05;;;;;;;;;;10244786;28;20092;-63
2024/01/15 11:28:51;;;;;;;20.33;13.82;;;;;;;;;;10244320;28;20087;-63
2024/01/15 11:33:50;;;;;;;38.22;23.95;;;;;;;;;;10245828;28;20095;-63
2024/01/15 11:38:50;;;;;;;28.63;20.90;;;;;;;;;;10253681;28;20503;-63
2024/01/15 11:43:48;;;;;;;10.82;7.82;;;;;;;;;;10252735;28;20522;-63
2024/01/15 11:48:47;;;;;;;17.13;14.57;;;;;;;;;;10251366;28;20073;-63
2024/01/15 11:53:48;;;;;;;26.25;18.85;;;;;;;;;;10250552;28;20084;-62
2024/01/15 11:58:48;;;;;;;52.85;39.08;;;;;;;;;;10249330;28;20038;-62
2024/01/15 12:03:48;;;;;;;23.10;18.00;;;;;;;;;;10234997;28;20069;-63
2024/01/15 12:08:46;;;;;;;14.43;11.45;;;;;;;;;;10251469;28;20073;-62
2024/01/15 12:13:44;;;;;;;13.40;9.32;;;;;;;;;;10251750;28;20080;-62
2024/01/15 12:18:44;;;;;;;10.25;8.65;;;;;;;;;;10251624;28;20084;-62
2024/01/15 12:23:42;;;;;;;8.30;7.32;;;;;;;;;;10252749;28;20069;-62
2024/01/15 12:28:40;;;;;;;17.88;13.82;;;;;;;;;;10254487;28;20075;-63
2024/01/15 12:33:40;;;;;;;12.40;11.07;;;;;;;;;;10253475;28;20084;-62
2024/01/15 12:38:39;;;;;;;9.43;8.52;;;;;;;;;;10253784;28;20513;-62
2024/01/15 12:43:38;;;;;;;9.25;7.72;;;;;;;;;;10251565;28;20068;-63
2024/01/15 12:48:36;;;;;;;7.47;5.60;;;;;;;;;;10251518;28;20080;-62
2024/01/15 12:53:35;;;;;;;6.90;4.13;;;;;;;;;;10249615;28;20080;-63
2024/01/15 12:58:34;;;;;;;4.50;4.10;;;;;;;;;;10251707;28;20069;-63
2024/01/15 13:03:34;;;;;;;8.98;4.50;;;;;;;;;;10248580;28;20069;-63
2024/01/15 13:08:35;;;;;;;7.35;6.38;;;;;;;;;;10250682;28;20072;-63
2024/01/15 13:13:35;;;;;;;8.73;7.85;;;;;;;;;;10249206;28;20100;-63
2024/01/15 13:18:33;;;;;;;371.80;229.18;;;;;;;;;;10246914;28;20064;-63
2024/01/15 13:23:31;;;;;;;318.45;187.57;;;;;;;;;;10247803;28;20068;-62
2024/01/15 13:28:29;;;;;;;172.55;95.55;;;;;;;;;;10251808;28;20076;-62
2024/01/15 13:33:29;;;;;;;79.22;46.50;;;;;;;;;;10251726;28;20084;-62
2024/01/15 13:38:31;;;;;;;45.00;26.60;;;;;;;;;;10250325;28;20072;-63
2024/01/15 13:43:29;;;;;;;56.88;31.00;;;;;;;;;;10247974;28;20068;-62
2024/01/15 13:48:29;;;;;;;105.65;55.47;;;;;;;;;;10250525;28;20085;-62
2024/01/15 13:53:27;;;;;;;84.28;46.15;;;;;;;;;;10247816;28;20490;-62
2024/01/15 13:58:25;;;;;;;252.20;127.20;;;;;;;;;;10248405;28;20072;-62
2024/01/15 14:03:23;;;;;;;455.30;257.77;;;;;;;;;;10247518;28;20069;-63
2024/01/15 14:08:23;;;;;;;71.22;40.45;;;;;;;;;;10247888;28;20081;-63
2024/01/15 14:13:21;;;;;;;100.45;54.30;;;;;;;;;;10249785;28;20484;-63
2024/01/15 14:18:20;;;;;;;90.65;55.67;;;;;;;;;;10230279;28;20123;-62
2024/01/15 14:23:23;;;;;;;127.93;74.93;;;;;;;;;;10249017;28;20083;-63
2024/01/15 14:28:21;;;;;;;408.73;241.60;;;;;;;;;;10247905;28;20075;-62
2024/01/15 14:33:20;;;;;;;541.53;328.67;;;;;;;;;;10250594;28;20068;-62
2024/01/15 14:38:18;;;;;;;177.43;114.50;;;;;;;;;;10247744;28;20073;-63
2024/01/15 14:43:18;;;;;;;126.68;84.65;;;;;;;;;;10243560;28;20071;-63
2024/01/15 14:48:16;;;;;;;100.75;71.28;;;;;;;;;;10244201;28;20083;-63
2024/01/15 14:53:15;;;;;;;88.93;69.05;;;;;;;;;;10245499;28;20103;-64
2024/01/15 14:58:13;;;;;;;89.85;57.10;;;;;;;;;;10246153;28;20087;-63
2024/01/15 15:03:15;;;;;;;72.20;47.10;;;;;;;;;;10245876;28;20049;-63
2024/01/15 15:08:14;;;;;;;66.38;42.58;;;;;;;;;;10246513;28;20075;-63
2024/01/15 15:13:12;;;;;;;57.03;40.85;;;;;;;;;;10247112;28;20081;-62
2024/01/15 15:18:11;;;;;;;87.95;61.42;;;;;;;;;;10247137;28;21117;-62
2024/01/15 15:23:11;;;;;;;97.07;57.88;;;;;;;;;;10245628;28;20077;-64
2024/01/15 15:28:11;;;;;;;67.38;44.55;;;;;;;;;;10246206;28;20073;-63
2024/01/15 15:33:09;;;;;;;48.38;31.25;;;;;;;;;;10247874;28;20064;-63
2024/01/15 15:38:07;;;;;;;33.47;25.27;;;;;;;;;;10246042;28;20060;-63
2024/01/15 15:43:07;;;;;;;21.77;14.88;;;;;;;;;;10242550;28;20072;-63
2024/01/15 15:48:06;;;;;;;10.75;9.48;;;;;;;;;;10245628;28;20077;-63
2024/01/15 15:53:04;;;;;;;26.52;22.67;;;;;;;;;;10243409;28;20077;-62
2024/01/15 15:58:03;;;;;;;19.88;17.08;;;;;;;;;;10239160;28;20095;-62
2024/01/15 16:03:03;;;;;;;20.40;14.32;;;;;;;;;;10237914;28;20553;-63
2024/01/15 16:08:01;;;;;;;35.03;29.55;;;;;;;;;;10238711;28;20116;-63
2024/01/15 16:13:01;;;;;;;48.10;30.88;;;;;;;;;;10238448;28;20076;-63
2024/01/15 16:17:59;;;;;;;31.25;21.00;;;;;;;;;;10241418;28;20108;-62
2024/01/15 16:23:19;;;;;;;59.97;40.13;;;;;;;;;;10249102;28;20462;-63
2024/01/15 16:28:37;;;;;;;90.32;60.40;;;;;;;;;;10250781;28;20085;-63
2024/01/15 16:33:36;;;;;;;90.78;66.07;;;;;;;;;;10247488;28;20340;-65
2024/01/15 16:38:36;;;;;;;78.30;52.13;;;;;;;;;;10249165;28;20080;-65
2024/01/15 16:43:34;;;;;;;37.38;29.63;;;;;;;;;;10247608;28;20079;-64
2024/01/15 16:48:32;;;;;;;55.75;38.75;;;;;;;;;;10252229;28;20088;-63
2024/01/15 16:53:30;;;;;;;65.38;45.28;;;;;;;;;;10252483;28;20076;-63
2024/01/15 16:58:30;;;;;;;81.15;55.70;;;;;;;;;;10251141;28;20073;-64
2024/01/15 17:03:28;;;;;;;44.85;29.25;;;;;;;;;;10251498;28;20471;-62
2024/01/15 17:08:29;;;;;;;69.40;40.17;;;;;;;;;;10250810;28;20081;-63
2024/01/15 17:13:28;;;;;;;92.85;57.47;;;;;;;;;;10234218;28;20081;-64
2024/01/15 17:18:28;;;;;;;36.78;24.13;;;;;;;;;;10246676;28;20468;-63
2024/01/15 17:23:26;;;;;;;66.20;46.00;;;;;;;;;;10244294;28;20103;-63
2024/01/15 17:28:25;;;;;;;28.23;20.13;;;;;;;;;;10251184;28;20084;-61
2024/01/15 17:33:24;;;;;;;53.30;38.10;;;;;;;;;;10248978;28;20073;-62
2024/01/15 17:38:24;;;;;;;67.32;41.65;;;;;;;;;;10247043;28;20415;-62
2024/01/15 17:43:22;;;;;;;69.95;45.80;;;;;;;;;;10242274;28;20488;-62
2024/01/15 17:48:20;;;;;;;102.68;67.03;;;;;;;;;;10247673;28;20091;-63
2024/01/15 17:53:19;;;;;;;50.05;35.58;;;;;;;;;;10242209;28;20065;-61
2024/01/15 17:58:19;;;;;;;24.60;17.08;;;;;;;;;;10245661;28;20073;-61
2024/01/15 18:03:18;;;;;;;36.60;26.73;;;;;;;;;;10240428;28;20080;-61
2024/01/15 18:08:16;;;;;;;53.22;37.10;;;;;;;;;;10237957;28;20091;-62
2024/01/15 18:13:14;;;;;;;47.08;32.65;;;;;;;;;;10245365;28;20076;-62
2024/01/15 18:18:14;;;;;;;66.20;49.47;;;;;;;;;;10243108;28;20519;-62
2024/01/15 18:23:12;;;;;;;49.95;32.15;;;;;;;;;;10247729;28;20549;-61
2024/01/15 18:28:14;;;;;;;21.90;17.40;;;;;;;;;;10241077;28;20307;-62
2024/01/15 18:33:14;;;;;;;49.17;35.10;;;;;;;;;;10245986;28;20557;-63
2024/01/15 18:38:12;;;;;;;31.88;24.65;;;;;;;;;;10243849;28;20076;-63
2024/01/15 18:43:10;;;;;;;30.77;24.45;;;;;;;;;;10245836;28;21164;-62
2024/01/15 18:48:10;;;;;;;57.90;40.90;;;;;;;;;;10240458;28;20537;-62
2024/01/15 18:53:09;;;;;;;97.53;55.75;;;;;;;;;;10243236;28;20077;-62
2024/01/15 18:58:08;;;;;;;23.67;18.23;;;;;;;;;;10246269;28;20120;-62
2024/01/15 19:03:06;;;;;;;21.33;16.92;;;;;;;;;;10250668;28;20072;-62
2024/01/15 19:08:04;;;;;;;20.15;16.55;;;;;;;;;;10241707;28;20083;-61
2024/01/15 19:13:05;;;;;;;34.08;23.17;;;;;;;;;;10240834;28;20487;-62
2024/01/15 19:18:04;;;;;;;38.30;26.25;;;;;;;;;;10240321;28;20518;-62
2024/01/15 19:23:04;;;;;;;28.33;20.20;;;;;;;;;;10245866;28;20506;-62
2024/01/15 19:28:05;;;;;;;18.65;16.35;;;;;;;;;;10244891;28;20114;-62
2024/01/15 19:33:04;;;;;;;32.35;24.95;;;;;;;;;;10244048;28;20084;-62
2024/01/15 19:38:05;;;;;;;22.92;17.23;;;;;;;;;;10244995;28;20064;-62
2024/01/15 19:43:03;;;;;;;17.77;15.38;;;;;;;;;;10239097;28;20525;-62
2024/01/15 19:48:03;;;;;;;17.05;12.07;;;;;;;;;;10239508;28;20088;-62
2024/01/15 19:53:02;;;;;;;10.32;8.88;;;;;;;;;;10240544;28;20525;-63
2024/01/15 19:58:00;;;;;;;8.68;6.40;;;;;;;;;;10253656;28;20071;-63
2024/01/15 20:02:58;;;;;;;7.75;6.72;;;;;;;;;;10250720;28;20064;-63
2024/01/15 20:07:58;;;;;;;7.78;6.50;;;;;;;;;;10253224;28;20100;-63
2024/01/15 20:12:57;;;;;;;8.55;7.50;;;;;;;;;;10253235;28;20064;-63
2024/01/15 20:17:55;;;;;;;13.32;9.82;;;;;;;;;;10249230;28;20069;-62
2024/01/15 20:22:54;;;;;;;11.82;9.55;;;;;;;;;;10251398;28;20471;-63
2024/01/15 20:27:53;;;;;;;9.20;7.70;;;;;;;;;;10249827;28;20069;-63
2024/01/15 20:32:51;;;;;;;7.70;6.88;;;;;;;;;;10244396;28;20124;-63
2024/01/15 20:37:54;;;;;;;8.88;7.97;;;;;;;;;;10252567;28;20097;-63
2024/01/15 20:42:54;;;;;;;4.07;3.67;;;;;;;;;;10251386;28;20064;-64
2024/01/15 20:47:52;;;;;;;11.88;10.52;;;;;;;;;;10248428;28;20080;-63
2024/01/15 20:52:50;;;;;;;15.20;13.60;;;;;;;;;;10252932;28;20114;-62
2024/01/15 20:57:49;;;;;;;17.38;9.15;;;;;;;;;;10245943;28;20077;-62
2024/01/15 21:02:50;;;;;;;13.00;10.35;;;;;;;;;;10248352;28;20069;-62
2024/01/15 21:07:50;;;;;;;14.40;12.13;;;;;;;;;;10243972;28;20108;-62
2024/01/15 21:12:48;;;;;;;17.83;15.68;;;;;;;;;;10248013;28;20088;-62
2024/01/15 21:17:46;;;;;;;22.00;19.60;;;;;;;;;;10249908;28;20069;-62
2024/01/15 21:22:50;;;;;;;11.70;9.98;;;;;;;;;;10245826;28;20077;-62
2024/01/15 21:27:48;;;;;;;12.52;10.45;;;;;;;;;;10242556;28;20538;-61
2024/01/15 21:32:47;;;;;;;11.80;10.57;;;;;;;;;;10246051;28;20073;-61
2024/01/15 21:37:45;;;;;;;30.45;24.67;;;;;;;;;;10244620;28;20068;-62
2024/01/15 21:42:44;;;;;;;65.25;42.28;;;;;;;;;;10249765;28;20076;-62
2024/01/15 21:47:43;;;;;;;44.67;28.45;;;;;;;;;;10250608;28;20112;-62
2024/01/15 21:52:41;;;;;;;24.67;16.77;;;;;;;;;;10252998;28;20427;-62
2024/01/15 21:57:39;;;;;;;36.20;24.85;;;;;;;;;;10249905;28;20072;-62
2024/01/15 22:02:41;;;;;;;15.73;12.93;;;;;;;;;;10251249;28;20065;-63
2024/01/15 22:07:41;;;;;;;10.77;9.68;;;;;;;;;;10245477;28;20084;-61
2024/01/15 22:12:39;;;;;;;11.63;9.30;;;;;;;;;;10251068;28;20083;-63
2024/01/15 22:17:39;;;;;;;19.70;14.25;;;;;;;;;;10248408;28;20041;-63
2024/01/15 22:22:37;;;;;;;11.07;9.77;;;;;;;;;;10250946;28;20081;-63
2024/01/15 22:27:35;;;;;;;10.65;7.55;;;;;;;;;;10248919;28;20092;-63
2024/01/15 22:32:33;;;;;;;9.23;7.35;;;;;;;;;;10249728;28;20076;-63
2024/01/15 22:37:33;;;;;;;15.32;10.48;;;;;;;;;;10247827;28;20072;-63
2024/01/15 22:42:32;;;;;;;9.30;7.43;;;;;;;;;;10250339;28;20080;-63
2024/01/15 22:47:30;;;;;;;15.43;9.52;;;;;;;;;;10248786;28;20096;-63
2024/01/15 22:52:28;;;;;;;12.10;8.40;;;;;;;;;;10248346;28;20061;-63
2024/01/15 22:57:28;;;;;;;14.73;12.48;;;;;;;;;;10247315;28;20061;-62
2024/01/15 23:02:26;;;;;;;11.98;9.50;;;;;;;;;;10249697;28;20064;-63
2024/01/15 23:07:25;;;;;;;7.20;5.55;;;;;;;;;;10245276;28;20087;-63
2024/01/15 23:12:27;;;;;;;23.80;13.18;;;;;;;;;;10247472;28;20061;-63
2024/01/15 23:17:26;;;;;;;13.68;8.30;;;;;;;;;;10248276;28;20069;-63
2024/01/15 23:22:24;;;;;;;6.53;4.72;;;;;;;;;;10247778;28;20076;-63
2024/01/15 23:27:22;;;;;;;5.45;4.32;;;;;;;;;;10250550;28;20080;-61
2024/01/15 23:32:22;;;;;;;11.30;7.15;;;;;;;;;;10252089;28;20081;-61
2024/01/15 23:37:20;;;;;;;8.02;6.13;;;;;;;;;;10253556;28;20522;-62
2024/01/15 23:42:18;;;;;;;8.70;7.65;;;;;;;;;;10266363;28;20079;-62
2024/01/15 23:47:16;;;;;;;25.33;13.20;;;;;;;;;;10255472;28;20076;-62
2024/01/15 23:52:16;;;;;;;13.02;8.55;;;;;;;;;;10256999;28;20061;-62
2024/01/15 23:57:15;;;;;;;10.23;7.97;;;;;;;;;;10253593;28;20068;-62
